Winigan, MO (63566)

10:29 AM CDT on August 02, 2015 (GMT -0500)
Mystic Plains COA | | Change Station
CLOSE
Current Station
Personal Weather Station
Location: Novinger, MO
Elevation: 984 ft
Nearby Weather Stations
Active Advisory: Flood Warning

Elev 984 ft 40.12 °N, 92.79 °W | Updated 12 seconds ago

Partly Cloudy
Partly Cloudy
80.4 °F
Feels Like 85 °F
N
8.0
Wind Variable Wind from WSW
Gusts 13.0 mph

Today
High -- | Low -- °F
--% Chance of Precip.
Yesterday
High -- | Low -- °F
Precip. -- in
6:10 AM 8:24 PM
Waning Gibbous, 93% visible
Pressure 29.90 in
Visibility -9999.0 miles
Clouds Clear
Heat Index 85 °F
Dew Point 73 °F
Humidity 79%
Rainfall 0.00 in
Snow Depth Not available.
UV 4.4 out of 12
Pollen 7.50 out of 12
Air Quality Not available.
Flu Activity Not available.
METAR KIRK 021455Z AUTO 22007KT -RA CLR 26/20 A2991 RMK AO2 RAE04B37 SLP125 60000 T02560200 56008 PNO $

More Conditions Fewer Conditions

Pressure 29.90 in
Visibility -9999.0 miles
Clouds Clear
Heat Index 85 °F
Dew Point 73 °F
Humidity 79%
Rainfall 0.00 in
Snow Depth Not available.
UV 4.4 out of 12
Pollen 7.50 out of 12
Air Quality Not available.
Flu Activity Not available.
METAR KIRK 021455Z AUTO 22007KT -RA CLR 26/20 A2991 RMK AO2 RAE04B37 SLP125 60000 T02560200 56008 PNO $

More Conditions Fewer Conditions

10-Day Weather Forecast

×

Almanac

Astronomy

Aug. 02, 2015 Rise Set
Actual Time
Civil Twilight
Nautical Twilight
Astronomical Twilight
Moon
Length of Visible Light
Length of Day
Tomorrow will be .
, % of the Moon is Illuminated

Today's Extremes

State Highs State Lows

Community

WunderPhotos

Upload Photos

1,843,280 photos uploaded!

WunderBlogs® & News

Nearby

Air Quality

  Air Quality AQ Index Pollutant
Not available.

Snow Depth

Station Depth Elevation

Earthquake Activity

City Distance Mag. Time & Date
Minimum magnitude displayed is 2.5.

Coastal Water Temperatures

Place Temperature

Stations

Nearby Weather Stations

Station Location Temp. Windchill Dew Point Humidity Wind Precip. Elev Updated Type
                   
Flood Warning
Statement as of 10:23 AM CDT on August 02, 2015

The Flood Warning continues for
the Grand River near Sumner.
* Until Tuesday afternoon.
* At 9:45 am Sunday the stage was 32.6 feet.
* Flood stage is 26.0 feet.
* Moderate flooding is occurring and moderate flooding is forecast.
* Forecast... the river will continue to fall to below flood stage by
Monday afternoon.
* At 28.0 feet... rural roads are under water.
* At 26.0 feet... rural land adjacent to the river is flooded.
* At 23.0 feet... bottomland 1 to 2 miles south of the gage begins to
flood.


                       Latest
location fs stage day/time forecast

Grand River
Sumner 26 32.6 sun 10 am 32.4 this afternoon


lat... Lon 3967 9343 3978 9343 3970 9327 3953 9321 3951 9330